createdAt,value
2022-09-03T00:03:11.829Z,45
2022-09-03T00:09:11.664Z,45.2
2022-09-03T00:15:11.675Z,45.6
2022-09-03T00:21:11.687Z,45.7
2022-09-03T00:27:11.659Z,45.8
2022-09-03T00:33:11.712Z,46.3
2022-09-03T00:39:11.673Z,46.3
2022-09-03T00:45:11.670Z,46.6
2022-09-03T00:51:11.673Z,47.1
2022-09-03T00:57:11.692Z,46.7
2022-09-03T01:03:11.676Z,46.9
2022-09-03T01:09:11.675Z,46.7
2022-09-03T01:15:11.681Z,47.2
2022-09-03T01:21:11.684Z,47.4
2022-09-03T01:27:11.693Z,47.5
2022-09-03T01:33:11.684Z,47.7
2022-09-03T01:39:11.698Z,48.1
2022-09-03T01:45:11.682Z,48.4
2022-09-03T01:51:11.709Z,48.6
2022-09-03T01:57:17.252Z,48.5
2022-09-03T02:03:11.695Z,48.6
2022-09-03T02:09:11.691Z,48.8
2022-09-03T02:15:11.690Z,49
2022-09-03T02:21:11.717Z,49.4
2022-09-03T02:27:11.730Z,49.3
2022-09-03T02:33:11.682Z,49.6
2022-09-03T02:39:11.686Z,49.5
2022-09-03T02:45:11.684Z,49.7
2022-09-03T02:51:13.810Z,49.8
2022-09-03T02:57:11.691Z,49.9
2022-09-03T03:03:11.709Z,50.2
2022-09-03T03:09:11.679Z,50.3
2022-09-03T03:15:11.709Z,50.4
2022-09-03T03:21:11.691Z,50.6
2022-09-03T03:27:11.711Z,50.6
2022-09-03T03:33:11.695Z,50.5
2022-09-03T03:39:11.683Z,50.8
2022-09-03T03:45:11.721Z,50.9
2022-09-03T03:51:11.735Z,51.1
2022-09-03T03:57:11.695Z,51.4
2022-09-03T04:03:11.725Z,51.8
2022-09-03T04:09:11.692Z,51.6
2022-09-03T04:15:11.709Z,51.7
2022-09-03T04:21:11.705Z,51.4
2022-09-03T04:27:11.700Z,51.6
2022-09-03T04:33:16.044Z,51.7
2022-09-03T04:39:11.695Z,51.8
2022-09-03T04:45:11.735Z,51.6
2022-09-03T04:51:11.796Z,51.8
2022-09-03T04:57:11.731Z,51.7
2022-09-03T05:03:11.757Z,51.7
2022-09-03T05:09:11.712Z,51.5
2022-09-03T05:15:11.718Z,51.8
2022-09-03T05:21:11.719Z,51.4
2022-09-03T05:27:11.729Z,51.5
2022-09-03T05:33:11.729Z,51.5
2022-09-03T05:39:11.723Z,51.5
2022-09-03T05:45:11.710Z,51.5
2022-09-03T05:51:11.704Z,51.7
2022-09-03T05:57:11.733Z,51.5
2022-09-03T06:03:11.947Z,51.5
2022-09-03T06:09:11.734Z,51.2
2022-09-03T06:15:11.711Z,51.4
2022-09-03T06:21:11.713Z,51.1
2022-09-03T06:27:11.714Z,51
2022-09-03T06:33:11.743Z,51.2
2022-09-03T06:39:11.708Z,50.6
2022-09-03T06:45:12.237Z,50.4
2022-09-03T06:51:11.721Z,47.8
2022-09-03T06:57:11.748Z,39
2022-09-03T07:03:11.722Z,38.3
2022-09-03T07:09:11.716Z,35.5
2022-09-03T07:15:11.729Z,33.8
2022-09-03T07:21:11.750Z,34.9
2022-09-03T07:27:14.956Z,38.5
2022-09-03T07:33:11.760Z,38.1
2022-09-03T07:39:11.771Z,42.6
2022-09-03T07:45:11.747Z,44.3
2022-09-03T07:51:11.736Z,45.4
2022-09-03T07:57:11.767Z,45.8
2022-09-03T08:03:11.732Z,46.2
2022-09-03T08:09:11.770Z,46.8
2022-09-03T08:15:11.759Z,47.7
2022-09-03T08:21:11.759Z,48.4
2022-09-03T08:27:11.757Z,48.5
2022-09-03T08:33:11.805Z,49.7
2022-09-03T08:39:11.809Z,52.6
2022-09-03T08:45:11.763Z,54.8
2022-09-03T08:51:11.760Z,55.4
2022-09-03T08:57:11.772Z,55.7
2022-09-03T09:03:11.748Z,54.4
2022-09-03T09:09:11.764Z,54
2022-09-03T09:15:11.764Z,53
2022-09-03T09:21:11.749Z,52.6
2022-09-03T09:27:15.891Z,52.2
2022-09-03T09:33:11.763Z,51.5
2022-09-03T09:39:11.757Z,50.7
2022-09-03T09:45:11.751Z,50.7
2022-09-03T09:51:11.764Z,49.9
2022-09-03T09:57:11.745Z,49.8
2022-09-03T10:03:11.825Z,49
2022-09-03T10:09:11.757Z,48.7
2022-09-03T10:15:11.774Z,48.9
2022-09-03T10:21:11.788Z,48.7
2022-09-03T10:27:11.869Z,47.9
2022-09-03T10:33:11.786Z,48.2
2022-09-03T10:39:11.832Z,48.4
2022-09-03T10:45:11.773Z,47.8
2022-09-03T10:51:11.780Z,45.2
2022-09-03T10:57:11.757Z,44.4
2022-09-03T11:03:11.779Z,42.8
2022-09-03T11:09:11.770Z,42.7
2022-09-03T11:15:11.791Z,41.4
2022-09-03T11:21:12.370Z,38.6
2022-09-03T11:27:11.773Z,41.4
2022-09-03T11:33:11.806Z,41.1
2022-09-03T11:39:11.795Z,42.4
2022-09-03T11:45:11.772Z,43.3
2022-09-03T11:51:11.818Z,44.7
2022-09-03T11:57:11.796Z,46
2022-09-03T12:03:11.776Z,45.8
2022-09-03T12:09:11.794Z,45.7
2022-09-03T12:15:11.796Z,47.2
2022-09-03T12:21:11.796Z,49.4
2022-09-03T12:27:11.813Z,47.2
2022-09-03T12:33:11.881Z,47.6
2022-09-03T12:39:13.199Z,47.6
2022-09-03T12:45:11.835Z,48.7
2022-09-03T12:57:11.809Z,47.7
2022-09-03T13:03:11.838Z,46.8
2022-09-03T13:09:11.862Z,47.8
2022-09-03T13:15:11.806Z,48.1
2022-09-03T13:21:11.829Z,48.2
2022-09-03T13:27:11.818Z,47.7
2022-09-03T13:33:11.957Z,48.7
2022-09-03T13:39:11.840Z,47.7
2022-09-03T13:45:11.823Z,48.8
2022-09-03T13:51:11.814Z,50.2
2022-09-03T13:57:11.815Z,49.6
2022-09-03T14:03:11.822Z,48.4
2022-09-03T14:09:11.834Z,47.7
2022-09-03T14:15:11.831Z,47.1
2022-09-03T14:21:11.881Z,48.5
2022-09-03T14:27:11.871Z,48.9
2022-09-03T14:33:11.861Z,49.2
2022-09-03T14:39:11.851Z,47.9
2022-09-03T14:45:11.820Z,47.7
2022-09-03T14:51:14.412Z,47.6
2022-09-03T14:57:13.021Z,46.6
2022-09-03T15:03:11.843Z,46.2
2022-09-03T15:09:11.848Z,46.7
2022-09-03T15:15:11.829Z,47.8
2022-09-03T15:21:11.853Z,47.7
2022-09-03T15:27:11.858Z,49
2022-09-03T15:33:11.871Z,49.9
2022-09-03T15:39:11.876Z,50.5
2022-09-03T15:45:11.830Z,51.3
2022-09-03T15:51:11.840Z,52.2
2022-09-03T15:57:11.844Z,52.3
2022-09-03T16:03:11.928Z,53.9
2022-09-03T16:09:11.844Z,56.5
2022-09-03T16:15:11.847Z,64.2
2022-09-03T16:21:11.883Z,69.2
2022-09-03T16:27:11.853Z,73.2
2022-09-03T16:33:11.857Z,74.4
2022-09-03T16:39:11.866Z,75.2
2022-09-03T16:45:11.860Z,77.5
2022-09-03T16:51:11.865Z,76.4
2022-09-03T16:57:11.864Z,77.2
2022-09-03T17:03:11.843Z,78.9
2022-09-03T17:09:11.848Z,79.8
2022-09-03T17:15:11.899Z,78.7
2022-09-03T17:25:11.895Z,80.4
2022-09-03T17:31:11.951Z,84.3
2022-09-03T17:37:11.884Z,84.1
2022-09-03T17:43:11.912Z,86.9
2022-09-03T17:49:11.869Z,85.5
2022-09-03T17:55:12.041Z,85.6
2022-09-03T18:01:11.884Z,83.9
2022-09-03T18:07:11.869Z,85.3
2022-09-03T18:13:11.884Z,84.6
2022-09-03T18:19:11.884Z,85
2022-09-03T18:25:11.914Z,84.5
2022-09-03T18:31:12.093Z,82.8
2022-09-03T18:37:11.902Z,81.8
2022-09-03T18:43:11.873Z,81.4
2022-09-03T18:49:12.028Z,82.6
2022-09-03T18:55:11.889Z,82.3
2022-09-03T19:01:11.894Z,82.5
2022-09-03T19:07:11.880Z,83.2
2022-09-03T19:13:12.967Z,83.7
2022-09-03T19:19:14.052Z,84.9
2022-09-03T19:25:11.903Z,85.1
2022-09-03T19:31:11.911Z,85.9
2022-09-03T19:37:11.888Z,86
2022-09-03T19:43:11.892Z,87
2022-09-03T19:49:11.916Z,86.6
2022-09-03T19:55:11.900Z,86.6
2022-09-03T20:01:11.998Z,86.5
2022-09-03T20:07:11.884Z,87
2022-09-03T20:13:11.898Z,88
2022-09-03T20:19:12.050Z,89.1
2022-09-03T20:25:11.936Z,88.3
2022-09-03T20:31:12.245Z,89
2022-09-03T20:37:12.002Z,89.4
2022-09-03T20:43:11.920Z,90
2022-09-03T20:49:11.915Z,90.5
2022-09-03T20:55:11.932Z,91
2022-09-03T21:01:11.981Z,90.7
2022-09-03T21:07:11.914Z,92.1
2022-09-03T21:13:11.929Z,92.2
2022-09-03T21:19:11.925Z,93.6
2022-09-03T21:25:11.948Z,93.9
2022-09-03T21:31:11.950Z,94.5
2022-09-03T21:37:11.909Z,94.3
2022-09-03T21:43:11.913Z,94.8
2022-09-03T21:49:11.911Z,95.4
2022-09-03T21:55:11.896Z,95.2
2022-09-03T22:01:11.987Z,94.3
2022-09-03T22:07:11.927Z,94
2022-09-03T22:13:11.935Z,93.7
2022-09-03T22:19:11.927Z,93.5
2022-09-03T22:25:11.936Z,93.8
2022-09-03T22:31:11.987Z,94.1
2022-09-03T22:37:11.915Z,94.7
2022-09-03T22:43:11.940Z,94.4
2022-09-03T22:49:11.979Z,95.1
2022-09-03T22:55:11.913Z,95.3
2022-09-03T23:01:12.024Z,96.6
2022-09-03T23:07:11.917Z,96.7
2022-09-03T23:13:11.922Z,97.4
2022-09-03T23:19:11.946Z,98.9
2022-09-03T23:25:11.928Z,100
2022-09-03T23:31:11.984Z,100
2022-09-03T23:37:32.359Z,100
2022-09-03T23:43:11.915Z,100
2022-09-03T23:49:11.978Z,100
2022-09-03T23:55:11.924Z,100
